createdAt,value
2018-03-26T00:02:05.427Z,21.13
2018-03-26T00:04:33.861Z,18.53
2018-03-26T00:07:01.367Z,21.53
2018-03-26T00:09:29.657Z,21.77
2018-03-26T00:11:57.932Z,21.57
2018-03-26T00:14:26.227Z,22.33
2018-03-26T00:16:53.754Z,19.57
2018-03-26T00:19:22.082Z,20.97
2018-03-26T00:21:49.686Z,21.67
2018-03-26T00:24:17.195Z,20.13
2018-03-26T00:26:45.491Z,18.47
2018-03-26T00:29:13.076Z,19.50
2018-03-26T00:31:40.595Z,22.63
2018-03-26T00:34:08.901Z,19.33
2018-03-26T00:36:36.421Z,21.97
2018-03-26T00:39:03.966Z,20.67
2018-03-26T00:41:31.512Z,21.60
2018-03-26T00:43:59.095Z,24.70
2018-03-26T00:46:27.387Z,23.57
2018-03-26T00:48:54.901Z,25.40
2018-03-26T00:51:22.441Z,28.30
2018-03-26T00:53:50.718Z,27.17
2018-03-26T00:56:18.234Z,28.43
2018-03-26T00:58:45.774Z,25.93
2018-03-26T01:01:13.286Z,27.13
2018-03-26T01:03:40.799Z,24.90
2018-03-26T01:06:08.408Z,24.60
2018-03-26T01:08:35.931Z,24.23
2018-03-26T01:11:03.447Z,25.80
2018-03-26T01:13:30.985Z,25.50
2018-03-26T01:15:58.510Z,29.50
2018-03-26T01:18:26.791Z,24.90
2018-03-26T01:20:55.114Z,24.90
2018-03-26T01:23:23.304Z,26.27
2018-03-26T01:25:50.821Z,23.77
2018-03-26T01:28:19.119Z,25.10
2018-03-26T01:30:46.627Z,24.13
2018-03-26T01:33:14.138Z,24.77
2018-03-26T01:35:41.672Z,21.93
2018-03-26T01:38:09.947Z,21.93
2018-03-26T01:40:37.813Z,22.37
2018-03-26T01:43:05.450Z,21.40
2018-03-26T01:45:33.039Z,22.17
2018-03-26T01:48:01.341Z,20.47
2018-03-26T01:50:28.894Z,21.97
2018-03-26T01:52:56.636Z,20.87
2018-03-26T01:55:24.154Z,19.27
2018-03-26T01:57:51.686Z,21.53
2018-03-26T02:00:19.280Z,23.43
2018-03-26T02:02:47.557Z,21.80
2018-03-26T02:05:15.862Z,21.50
2018-03-26T02:07:43.482Z,21.07
2018-03-26T02:10:10.956Z,18.00
2018-03-26T02:12:39.259Z,20.83
2018-03-26T02:15:06.819Z,25.07
2018-03-26T02:17:35.114Z,23.73
2018-03-26T02:20:02.641Z,24.97
2018-03-26T02:22:30.311Z,25.40
2018-03-26T02:24:59.330Z,27.03
2018-03-26T02:27:27.629Z,25.50
2018-03-26T02:29:55.139Z,27.07
2018-03-26T02:32:22.852Z,25.90
2018-03-26T02:34:50.565Z,27.27
2018-03-26T02:37:18.092Z,27.03
2018-03-26T02:39:45.655Z,27.17
2018-03-26T02:42:13.275Z,31.07
2018-03-26T02:44:40.806Z,28.17
2018-03-26T02:47:08.329Z,26.40
2018-03-26T02:49:36.636Z,25.93
2018-03-26T02:52:04.154Z,25.73
2018-03-26T02:54:32.445Z,25.93
2018-03-26T02:57:00.769Z,22.60
2018-03-26T02:59:28.281Z,24.93
2018-03-26T03:01:56.573Z,24.87
2018-03-26T03:04:24.129Z,26.77
2018-03-26T03:06:52.456Z,24.97
2018-03-26T03:09:20.483Z,27.13
2018-03-26T03:11:48.087Z,27.30
2018-03-26T03:14:15.603Z,27.27
2018-03-26T03:16:43.363Z,27.23
2018-03-26T03:19:10.904Z,27.17
2018-03-26T03:21:38.419Z,25.17
2018-03-26T03:24:06.847Z,23.80
2018-03-26T03:26:34.674Z,23.13
2018-03-26T03:29:02.985Z,22.17
2018-03-26T03:31:30.510Z,23.57
2018-03-26T03:33:58.815Z,26.43
2018-03-26T03:36:27.084Z,23.33
2018-03-26T03:38:54.645Z,23.20
2018-03-26T03:41:22.174Z,26.63
2018-03-26T03:43:49.763Z,22.43
2018-03-26T03:46:18.039Z,22.83
2018-03-26T03:48:45.568Z,26.40
2018-03-26T03:51:13.080Z,25.10
2018-03-26T03:53:41.359Z,25.93
2018-03-26T03:56:08.933Z,23.17
2018-03-26T03:58:37.214Z,27.70
2018-03-26T04:01:05.513Z,23.07
2018-03-26T04:03:33.159Z,23.73
2018-03-26T04:06:01.450Z,23.47
2018-03-26T04:08:29.811Z,22.87
2018-03-26T04:10:57.341Z,24.60
2018-03-26T04:13:25.006Z,25.90
2018-03-26T04:15:52.875Z,27.43
2018-03-26T04:18:20.434Z,26.20
2018-03-26T04:20:47.955Z,26.00
2018-03-26T04:23:16.232Z,25.30
2018-03-26T04:25:45.349Z,27.33
2018-03-26T04:28:12.862Z,26.40
2018-03-26T04:30:40.524Z,25.97
2018-03-26T04:33:08.057Z,29.97
2018-03-26T04:35:35.620Z,28.83
2018-03-26T04:38:03.940Z,27.30
2018-03-26T04:40:31.486Z,28.47
2018-03-26T04:43:00.050Z,31.17
2018-03-26T04:45:28.411Z,28.60
2018-03-26T04:47:55.963Z,27.87
2018-03-26T04:50:23.507Z,27.40
2018-03-26T04:52:51.041Z,29.27
2018-03-26T04:55:18.617Z,25.20
2018-03-26T04:57:46.127Z,25.40
2018-03-26T05:00:13.754Z,29.23
2018-03-26T05:02:41.305Z,29.57
2018-03-26T05:05:08.904Z,29.60
2018-03-26T05:07:38.092Z,28.67
2018-03-26T05:10:05.636Z,28.63
2018-03-26T05:12:33.147Z,29.70
2018-03-26T05:15:00.712Z,28.23
2018-03-26T05:17:29.239Z,29.97
2018-03-26T05:19:56.846Z,25.37
2018-03-26T05:22:24.535Z,30.47
2018-03-26T05:24:52.071Z,29.90
2018-03-26T05:27:19.582Z,27.40
2018-03-26T05:29:47.910Z,33.87
2018-03-26T05:32:15.503Z,26.90
2018-03-26T05:34:43.094Z,26.60
2018-03-26T05:37:11.367Z,31.13
2018-03-26T05:39:40.158Z,30.40
2018-03-26T05:42:08.604Z,31.30
2018-03-26T05:44:36.130Z,26.73
2018-03-26T05:47:04.528Z,32.93
2018-03-26T05:49:32.533Z,28.63
2018-03-26T05:52:00.139Z,28.93
2018-03-26T05:54:28.479Z,37.30
2018-03-26T05:56:56.002Z,32.63
2018-03-26T05:59:24.304Z,30.83
2018-03-26T06:01:51.864Z,31.33
2018-03-26T06:04:19.396Z,31.30
2018-03-26T06:06:47.670Z,35.47
2018-03-26T06:09:15.239Z,32.60
2018-03-26T06:11:42.983Z,33.47
2018-03-26T06:14:10.500Z,29.03
2018-03-26T06:16:54.894Z,33.03
2018-03-26T06:19:22.420Z,32.90
2018-03-26T06:21:49.945Z,34.33
2018-03-26T06:24:18.271Z,29.70
2018-03-26T06:26:45.814Z,32.63
2018-03-26T06:29:14.103Z,29.77
2018-03-26T06:31:41.631Z,32.70
2018-03-26T06:34:09.934Z,30.93
2018-03-26T06:36:43.248Z,31.83
2018-03-26T06:39:27.446Z,32.73
2018-03-26T06:41:54.976Z,33.17
2018-03-26T06:44:22.495Z,27.97
2018-03-26T06:46:50.774Z,30.37
2018-03-26T06:49:19.138Z,32.13
2018-03-26T06:51:47.439Z,30.03
2018-03-26T06:54:15.730Z,34.63
2018-03-26T06:56:43.320Z,31.53
2018-03-26T06:59:10.832Z,31.27
2018-03-26T07:01:39.866Z,29.97
2018-03-26T07:04:07.398Z,31.00
2018-03-26T07:06:34.926Z,30.53
2018-03-26T07:09:02.440Z,31.77
2018-03-26T07:11:31.682Z,31.97
2018-03-26T07:13:59.196Z,32.93
2018-03-26T07:16:27.495Z,34.20
2018-03-26T07:18:55.858Z,34.37
2018-03-26T07:21:23.409Z,29.43
2018-03-26T07:23:50.931Z,32.43
2018-03-26T07:26:25.185Z,35.37
2018-03-26T07:28:54.361Z,34.33
2018-03-26T07:31:21.898Z,34.63
2018-03-26T07:33:49.477Z,30.70
2018-03-26T07:36:17.062Z,33.57
2018-03-26T07:38:44.590Z,34.93
2018-03-26T07:41:12.978Z,34.63
2018-03-26T07:43:40.472Z,35.37
2018-03-26T07:46:07.984Z,33.87
2018-03-26T07:48:35.526Z,34.17
2018-03-26T07:51:03.094Z,31.83
2018-03-26T07:53:32.153Z,33.30
2018-03-26T07:55:59.947Z,34.80
2018-03-26T07:58:27.485Z,37.83
2018-03-26T08:00:54.993Z,33.20
2018-03-26T08:03:23.316Z,38.43
2018-03-26T08:05:50.943Z,37.40
2018-03-26T08:08:18.474Z,40.90
2018-03-26T08:10:46.035Z,39.60
2018-03-26T08:13:13.564Z,36.30
2018-03-26T08:15:41.837Z,39.03
2018-03-26T08:18:10.149Z,39.67
2018-03-26T08:20:37.671Z,37.43
2018-03-26T08:23:05.410Z,36.60
2018-03-26T08:25:33.731Z,37.67
2018-03-26T08:28:01.255Z,35.73
2018-03-26T08:30:29.543Z,37.50
2018-03-26T08:32:57.077Z,38.00
2018-03-26T08:35:24.585Z,38.97
2018-03-26T08:37:52.219Z,36.43
2018-03-26T08:40:19.755Z,37.20
2018-03-26T08:42:47.270Z,39.67
2018-03-26T08:45:14.789Z,42.07
2018-03-26T08:47:42.351Z,43.43
2018-03-26T08:50:10.072Z,44.20
2018-03-26T08:52:38.405Z,40.77
2018-03-26T08:55:06.066Z,40.13
2018-03-26T08:57:33.582Z,38.37
2018-03-26T09:00:02.609Z,38.50
2018-03-26T09:02:31.168Z,39.00
2018-03-26T09:04:58.803Z,39.93
2018-03-26T09:07:26.771Z,40.97
2018-03-26T09:09:55.056Z,42.23
2018-03-26T09:12:24.118Z,41.53
2018-03-26T09:14:52.398Z,45.53
2018-03-26T09:17:20.719Z,45.63
2018-03-26T09:19:48.234Z,38.47
2018-03-26T09:22:16.538Z,39.10
2018-03-26T09:24:44.138Z,41.07
2018-03-26T09:27:11.703Z,43.93
2018-03-26T09:29:39.234Z,42.10
2018-03-26T09:32:06.859Z,39.17
2018-03-26T09:34:34.382Z,37.90
2018-03-26T09:37:01.908Z,40.00
2018-03-26T09:39:30.216Z,35.53
2018-03-26T09:41:57.723Z,38.80
2018-03-26T09:44:25.259Z,37.47
2018-03-26T09:46:52.914Z,40.67
2018-03-26T09:49:20.434Z,38.70
2018-03-26T09:51:48.711Z,38.50
2018-03-26T09:54:17.131Z,35.50
2018-03-26T09:56:45.398Z,47.40
2018-03-26T09:59:13.681Z,40.70
2018-03-26T10:02:02.724Z,38.53
2018-03-26T10:04:31.037Z,37.33
2018-03-26T10:06:58.557Z,42.27
2018-03-26T10:09:26.104Z,38.30
2018-03-26T10:11:53.659Z,39.80
2018-03-26T10:14:21.181Z,37.23
2018-03-26T10:16:49.496Z,37.57
2018-03-26T10:19:17.013Z,42.70
2018-03-26T10:21:45.290Z,38.83
2018-03-26T10:24:13.626Z,41.27
2018-03-26T10:26:41.147Z,39.97
2018-03-26T10:29:09.422Z,41.70
2018-03-26T10:31:36.964Z,38.67
2018-03-26T10:34:04.487Z,40.77
2018-03-26T10:36:32.034Z,40.27
2018-03-26T10:38:59.583Z,40.93
2018-03-26T10:41:27.103Z,44.00
2018-03-26T10:43:54.622Z,40.20
2018-03-26T10:46:22.929Z,38.27
2018-03-26T10:48:50.466Z,41.10
2018-03-26T10:51:18.864Z,41.27
2018-03-26T10:53:46.396Z,35.67
2018-03-26T10:56:14.753Z,41.90
2018-03-26T10:58:42.275Z,45.00
2018-03-26T11:01:09.822Z,41.00
2018-03-26T11:03:38.146Z,42.17
2018-03-26T11:06:05.670Z,40.67
2018-03-26T11:08:33.980Z,39.40
2018-03-26T11:11:01.520Z,39.13
2018-03-26T11:13:29.055Z,40.77
2018-03-26T11:15:56.607Z,40.37
2018-03-26T11:18:24.127Z,46.60
2018-03-26T11:20:51.638Z,40.50
2018-03-26T11:23:19.162Z,42.13
2018-03-26T11:25:46.687Z,40.47
2018-03-26T11:28:15.027Z,42.50
2018-03-26T11:30:42.597Z,40.17
2018-03-26T11:33:10.100Z,38.70
2018-03-26T11:35:38.391Z,38.40
2018-03-26T11:38:06.691Z,40.13
2018-03-26T11:40:34.219Z,43.63
2018-03-26T11:43:02.503Z,38.77
2018-03-26T11:45:30.811Z,40.63
2018-03-26T11:47:58.335Z,44.80
2018-03-26T11:50:26.985Z,42.87
2018-03-26T11:52:54.526Z,38.80
2018-03-26T11:55:22.823Z,40.60
2018-03-26T11:57:50.538Z,38.70
2018-03-26T12:00:19.633Z,47.23
2018-03-26T12:02:47.263Z,39.30
2018-03-26T12:05:14.851Z,41.23
2018-03-26T12:07:42.438Z,42.63
2018-03-26T12:10:10.734Z,40.40
2018-03-26T12:12:38.326Z,41.50
2018-03-26T12:15:05.908Z,39.37
2018-03-26T12:17:33.472Z,40.43
2018-03-26T12:20:12.918Z,38.37
2018-03-26T12:22:40.444Z,42.27
2018-03-26T12:25:11.567Z,38.43
2018-03-26T12:27:51.863Z,38.90
2018-03-26T12:30:20.114Z,41.27
2018-03-26T12:32:48.411Z,36.93
2018-03-26T12:35:27.874Z,36.27
2018-03-26T12:37:55.387Z,37.60
2018-03-26T12:40:34.703Z,34.03
2018-03-26T12:43:02.258Z,37.73
2018-03-26T12:45:41.619Z,33.87
2018-03-26T12:48:09.141Z,33.97
2018-03-26T12:50:48.716Z,34.97
2018-03-26T12:53:16.292Z,37.93
2018-03-26T12:55:44.591Z,32.67
2018-03-26T12:58:24.183Z,38.60
2018-03-26T13:01:15.574Z,35.37
2018-03-26T13:03:43.138Z,35.90
2018-03-26T13:06:10.663Z,36.80
2018-03-26T13:08:38.945Z,33.53
2018-03-26T13:11:07.266Z,33.17
2018-03-26T13:13:34.771Z,34.17
2018-03-26T13:16:02.296Z,31.30
2018-03-26T13:18:29.851Z,37.93
2018-03-26T13:20:57.401Z,33.17
2018-03-26T13:23:24.910Z,29.87
2018-03-26T13:25:52.449Z,41.57
2018-03-26T13:28:19.966Z,29.10
2018-03-26T13:30:48.251Z,25.37
2018-03-26T13:33:16.586Z,23.60
2018-03-26T13:35:44.207Z,24.83
2018-03-26T13:38:11.738Z,27.30
2018-03-26T13:40:39.286Z,28.90
2018-03-26T13:43:06.812Z,28.40
2018-03-26T13:45:34.325Z,29.30
2018-03-26T13:48:01.862Z,27.53
2018-03-26T13:50:29.431Z,29.03
2018-03-26T13:52:56.951Z,27.83
2018-03-26T13:55:25.254Z,28.10
2018-03-26T13:57:52.774Z,31.93
2018-03-26T14:00:20.476Z,27.30
2018-03-26T14:02:48.028Z,32.40
2018-03-26T14:05:16.305Z,29.17
2018-03-26T14:07:44.583Z,29.37
2018-03-26T14:10:24.945Z,33.13
2018-03-26T14:13:05.054Z,31.17
2018-03-26T14:15:44.636Z,30.43
2018-03-26T14:18:12.931Z,30.27
2018-03-26T14:20:40.508Z,32.10
2018-03-26T14:23:08.071Z,27.83
2018-03-26T14:25:35.595Z,29.30
2018-03-26T14:28:04.618Z,27.70
2018-03-26T14:30:33.059Z,28.90
2018-03-26T14:33:00.574Z,30.20
2018-03-26T14:35:43.089Z,26.67
2018-03-26T14:38:10.620Z,28.47
2018-03-26T14:40:38.913Z,26.67
2018-03-26T14:43:06.516Z,28.83
2018-03-26T14:45:34.035Z,27.93
2018-03-26T14:48:01.591Z,28.10
2018-03-26T14:50:29.197Z,27.87
2018-03-26T14:52:56.726Z,24.97
2018-03-26T14:55:25.092Z,25.70
2018-03-26T14:57:52.651Z,24.63
2018-03-26T15:00:20.174Z,26.00
2018-03-26T15:02:47.710Z,26.23
2018-03-26T15:05:15.290Z,25.17
2018-03-26T15:07:42.798Z,26.93
2018-03-26T15:10:10.327Z,24.23
2018-03-26T15:12:37.859Z,25.13
2018-03-26T15:15:06.149Z,23.70
2018-03-26T15:17:34.441Z,25.17
2018-03-26T15:20:01.975Z,26.47
2018-03-26T15:22:29.491Z,28.23
2018-03-26T15:24:57.022Z,26.77
2018-03-26T15:27:24.578Z,27.47
2018-03-26T15:29:52.140Z,27.07
2018-03-26T15:32:20.436Z,27.97
2018-03-26T15:34:48.043Z,27.30
2018-03-26T15:37:15.609Z,31.40
2018-03-26T15:39:43.151Z,29.67
2018-03-26T15:42:10.712Z,28.63
2018-03-26T15:44:38.227Z,27.50
2018-03-26T15:47:05.754Z,30.63
2018-03-26T15:49:33.602Z,28.77
2018-03-26T15:52:01.114Z,28.53
2018-03-26T15:54:28.639Z,29.30
2018-03-26T15:56:56.175Z,28.73
2018-03-26T15:59:24.554Z,32.27
2018-03-26T16:01:51.622Z,30.50
2018-03-26T16:04:19.930Z,32.40
2018-03-26T16:06:47.476Z,30.33
2018-03-26T16:09:15.077Z,29.63
2018-03-26T16:11:42.718Z,30.90
2018-03-26T16:14:10.222Z,31.73
2018-03-26T16:16:37.727Z,36.30
2018-03-26T16:19:06.031Z,31.87
2018-03-26T16:21:33.543Z,32.83
2018-03-26T16:24:01.066Z,31.10
2018-03-26T16:26:28.614Z,31.37
2018-03-26T16:28:56.183Z,30.00
2018-03-26T16:31:23.699Z,34.50
2018-03-26T16:33:52.760Z,34.80
2018-03-26T16:36:20.282Z,35.50
2018-03-26T16:38:48.560Z,32.70
2018-03-26T16:41:28.956Z,37.00
2018-03-26T16:43:56.468Z,32.20
2018-03-26T16:46:23.994Z,33.40
2018-03-26T16:48:51.546Z,33.20
2018-03-26T16:51:19.057Z,33.43
2018-03-26T16:53:46.619Z,34.97
2018-03-26T16:56:14.168Z,33.23
2018-03-26T16:58:41.686Z,33.57
2018-03-26T17:01:09.214Z,33.67
2018-03-26T17:03:38.282Z,33.43
2018-03-26T17:06:05.804Z,32.00
2018-03-26T17:08:34.093Z,33.17
2018-03-26T17:11:02.456Z,32.23
2018-03-26T17:13:29.910Z,31.73
2018-03-26T17:15:58.211Z,36.90
2018-03-26T17:18:26.502Z,34.33
2018-03-26T17:20:54.011Z,32.00
2018-03-26T17:23:21.533Z,35.33
2018-03-26T17:25:49.082Z,33.53
2018-03-26T17:28:16.618Z,34.77
2018-03-26T17:30:44.147Z,30.73
2018-03-26T17:33:11.717Z,32.40
2018-03-26T17:35:39.239Z,28.40
2018-03-26T17:38:06.764Z,27.53
2018-03-26T17:40:34.593Z,30.37
2018-03-26T17:43:02.122Z,27.67
2018-03-26T17:45:29.643Z,28.33
2018-03-26T17:47:57.201Z,31.10
2018-03-26T17:50:24.727Z,29.03
2018-03-26T17:52:53.007Z,28.90
2018-03-26T17:55:21.305Z,31.40
2018-03-26T17:57:48.832Z,30.07
2018-03-26T18:00:16.978Z,29.10
2018-03-26T18:02:44.534Z,30.53
2018-03-26T18:05:12.091Z,27.03
2018-03-26T18:07:39.619Z,28.17
2018-03-26T18:10:07.976Z,30.13
2018-03-26T18:12:35.454Z,27.67
2018-03-26T18:15:03.762Z,28.47
2018-03-26T18:17:32.066Z,27.53
2018-03-26T18:19:59.567Z,28.83
2018-03-26T18:22:27.163Z,28.93
2018-03-26T18:24:55.459Z,25.00
2018-03-26T18:27:23.733Z,25.37
2018-03-26T18:29:52.267Z,26.03
2018-03-26T18:32:19.818Z,23.70
2018-03-26T18:34:47.342Z,26.77
2018-03-26T18:37:15.638Z,26.70
2018-03-26T18:39:43.214Z,26.63
2018-03-26T18:42:10.726Z,27.50
2018-03-26T18:44:38.236Z,27.47
2018-03-26T18:47:05.772Z,24.87
2018-03-26T18:49:34.058Z,26.73
2018-03-26T18:52:02.383Z,25.50
2018-03-26T18:54:29.999Z,27.03
2018-03-26T18:56:58.328Z,26.13
2018-03-26T18:59:25.944Z,29.23
2018-03-26T19:01:53.494Z,27.40
2018-03-26T19:04:21.024Z,31.00
2018-03-26T19:06:48.637Z,30.10
2018-03-26T19:09:16.959Z,30.23
2018-03-26T19:11:44.483Z,28.23
2018-03-26T19:14:12.811Z,30.60
2018-03-26T19:16:40.401Z,29.70
2018-03-26T19:19:07.901Z,32.20
2018-03-26T19:21:35.461Z,32.73
2018-03-26T19:24:03.023Z,33.30
2018-03-26T19:26:30.549Z,32.27
2018-03-26T19:28:58.084Z,33.60
2018-03-26T19:31:25.606Z,34.20
2018-03-26T19:33:53.908Z,34.63
2018-03-26T19:36:22.191Z,32.13
2018-03-26T19:38:50.499Z,34.00
2018-03-26T19:41:18.085Z,33.73
2018-03-26T19:43:45.634Z,30.60
2018-03-26T19:46:13.211Z,35.27
2018-03-26T19:48:43.033Z,35.63
2018-03-26T19:51:10.747Z,34.73
2018-03-26T19:53:39.062Z,38.20
2018-03-26T19:56:06.581Z,35.10
2018-03-26T19:58:34.118Z,37.17
2018-03-26T20:01:01.745Z,33.83
2018-03-26T20:03:29.270Z,34.83
2018-03-26T20:05:56.794Z,39.70
2018-03-26T20:08:24.407Z,39.37
2018-03-26T20:10:52.742Z,37.80
2018-03-26T20:13:20.438Z,36.97
2018-03-26T20:15:48.913Z,38.87
2018-03-26T20:18:16.696Z,37.30
2018-03-26T20:20:44.361Z,36.33
2018-03-26T20:23:12.875Z,39.57
2018-03-26T20:25:40.442Z,39.67
2018-03-26T20:28:08.735Z,39.33
2018-03-26T20:30:37.044Z,39.27
2018-03-26T20:33:04.575Z,38.13
2018-03-26T20:35:32.850Z,37.67
2018-03-26T20:38:01.909Z,39.70
2018-03-26T20:40:29.740Z,37.57
2018-03-26T20:42:58.017Z,39.53
2018-03-26T20:45:26.362Z,39.43
2018-03-26T20:47:53.902Z,35.50
2018-03-26T20:50:21.441Z,43.57
2018-03-26T20:52:48.987Z,37.73
2018-03-26T20:55:16.733Z,39.63
2018-03-26T20:57:45.027Z,37.20
2018-03-26T21:00:13.322Z,38.23
2018-03-26T21:02:41.602Z,39.80
2018-03-26T21:05:09.133Z,40.40
2018-03-26T21:07:38.182Z,37.93
2018-03-26T21:10:05.806Z,39.50
2018-03-26T21:12:33.346Z,37.07
2018-03-26T21:15:00.886Z,38.23
2018-03-26T21:17:28.389Z,39.50
2018-03-26T21:19:56.745Z,37.37
2018-03-26T21:22:24.281Z,32.47
2018-03-26T21:24:51.807Z,34.13
2018-03-26T21:27:19.423Z,34.90
2018-03-26T21:29:47.235Z,36.93
2018-03-26T21:32:14.771Z,36.27
2018-03-26T21:34:42.279Z,39.57
2018-03-26T21:37:09.802Z,39.60
2018-03-26T21:39:37.322Z,38.30
2018-03-26T21:42:05.682Z,37.27
2018-03-26T21:44:33.256Z,37.77
2018-03-26T21:47:01.529Z,38.00
2018-03-26T21:49:29.810Z,37.50
2018-03-26T21:51:58.123Z,37.63
2018-03-26T21:54:25.659Z,37.57
2018-03-26T21:56:53.963Z,39.87
2018-03-26T21:59:21.513Z,39.20
2018-03-26T22:01:49.802Z,41.77
2018-03-26T22:04:18.089Z,38.03
2018-03-26T22:06:46.452Z,38.00
2018-03-26T22:09:13.961Z,38.40
2018-03-26T22:11:41.574Z,36.37
2018-03-26T22:16:38.912Z,40.63
2018-03-26T22:19:07.254Z,37.07
2018-03-26T22:21:35.547Z,39.47
2018-03-26T22:24:03.891Z,40.43
2018-03-26T22:26:32.181Z,41.10
2018-03-26T22:28:59.700Z,39.03
2018-03-26T22:31:28.154Z,40.07
2018-03-26T22:33:56.446Z,39.03
2018-03-26T22:36:23.970Z,39.33
2018-03-26T22:38:51.506Z,39.47
2018-03-26T22:41:19.031Z,36.27
2018-03-26T22:43:47.331Z,40.67
2018-03-26T22:46:14.883Z,36.17
2018-03-26T22:48:43.166Z,42.67
2018-03-26T22:51:10.706Z,40.13
2018-03-26T22:53:39.105Z,39.97
2018-03-26T22:56:07.389Z,38.90
2018-03-26T22:58:35.677Z,42.97
2018-03-26T23:01:03.214Z,42.43
2018-03-26T23:03:31.539Z,40.47
2018-03-26T23:05:59.052Z,40.80
2018-03-26T23:08:26.587Z,43.53
2018-03-26T23:10:54.095Z,41.30
2018-03-26T23:13:22.459Z,45.10
2018-03-26T23:15:50.138Z,44.67
2018-03-26T23:18:18.411Z,40.40
2018-03-26T23:20:45.931Z,43.90
2018-03-26T23:23:13.487Z,44.00
2018-03-26T23:25:41.030Z,42.67
2018-03-26T23:28:09.325Z,43.00
2018-03-26T23:30:36.870Z,42.40
2018-03-26T23:33:05.154Z,41.47
2018-03-26T23:35:33.447Z,44.57
2018-03-26T23:38:01.003Z,42.63
2018-03-26T23:40:28.535Z,41.20
2018-03-26T23:42:56.056Z,43.33
2018-03-26T23:45:23.615Z,43.13
2018-03-26T23:47:51.319Z,43.10
2018-03-26T23:50:18.829Z,41.87
2018-03-26T23:52:47.155Z,44.90
2018-03-26T23:55:14.668Z,40.63
2018-03-26T23:57:42.963Z,42.50
